<?xml version="1.0" encoding="UTF-8" standalone="no" ?>
<gpx xmlns="http://www.topografix.com/GPX/1/1" xmlns:xsi="http://www.w3.org/2001/XMLSchema-instance" xsi:schemaLocation="http://www.topografix.com/GPX/1/1 http://www.topografix.com/GPX/1/1/gpx.xsd" version="1.1" creator="VisuGPX - https://www.visugpx.com">
  <metadata>
    <name>Raid VTT IFV 2022 de l'enfer</name>
    <desc><![CDATA[Tracé du raid avec le découpage en segments de guidage individuels avec thème d'animation imposé]]></desc>
  </metadata>
  <trk>
    <name><![CDATA[J2 - RUN 6 - Rémy]]></name>
    <desc><![CDATA[Faune : Le loup et le pastoralisme dans la région]]></desc>
    <extensions>
      <line xmlns="http://www.topografix.com/GPX/gpx_style/0/2">
        <color>ff00ff</color>
        <width>4</width>
        <dasharray>8</dasharray>
          <extensions>
            <sens>1</sens>
          </extensions>
      </line>
    </extensions>
    <trkseg>
      <trkpt lat="44.06767" lon="6.46417">
        <ele>1290</ele>
        <time>1990-12-07T09:37:30Z</time>
      </trkpt>
      <trkpt lat="44.06805" lon="6.46432">
        <ele>1293</ele>
        <time>1990-12-07T09:37:00Z</time>
      </trkpt>
      <trkpt lat="44.06813" lon="6.4643">
        <ele>1296</ele>
        <time>1990-12-07T09:36:34Z</time>
      </trkpt>
      <trkpt lat="44.068" lon="6.46417">
        <ele>1300</ele>
        <time>1990-12-07T09:36:26Z</time>
      </trkpt>
      <trkpt lat="44.06815" lon="6.46412">
        <ele>1304</ele>
        <time>1990-12-07T09:36:15Z</time>
      </trkpt>
      <trkpt lat="44.0686" lon="6.46413">
        <ele>1308</ele>
        <time>1990-12-07T09:35:46Z</time>
      </trkpt>
      <trkpt lat="44.06905" lon="6.46412">
        <ele>1310</ele>
        <time>1990-12-07T09:35:36Z</time>
      </trkpt>
      <trkpt lat="44.06928" lon="6.46405">
        <ele>1311</ele>
        <time>1990-12-07T09:35:28Z</time>
      </trkpt>
      <trkpt lat="44.06982" lon="6.46353">
        <ele>1308</ele>
        <time>1990-12-07T09:35:06Z</time>
      </trkpt>
      <trkpt lat="44.06983" lon="6.46425">
        <ele>1308</ele>
        <time>1990-12-07T09:34:49Z</time>
      </trkpt>
      <trkpt lat="44.06995" lon="6.46465">
        <ele>1305</ele>
        <time>1990-12-07T09:34:36Z</time>
      </trkpt>
      <trkpt lat="44.07007" lon="6.46488">
        <ele>1303</ele>
        <time>1990-12-07T09:34:27Z</time>
      </trkpt>
      <trkpt lat="44.07073" lon="6.46525">
        <ele>1300</ele>
        <time>1990-12-07T09:34:14Z</time>
      </trkpt>
      <trkpt lat="44.07117" lon="6.46493">
        <ele>1303</ele>
        <time>1990-12-07T09:34:07Z</time>
      </trkpt>
      <trkpt lat="44.07167" lon="6.46415">
        <ele>1310</ele>
        <time>1990-12-07T09:33:56Z</time>
      </trkpt>
      <trkpt lat="44.07207" lon="6.46372">
        <ele>1312</ele>
        <time>1990-12-07T09:33:47Z</time>
      </trkpt>
      <trkpt lat="44.07223" lon="6.4634">
        <ele>1314</ele>
        <time>1990-12-07T09:33:42Z</time>
      </trkpt>
      <trkpt lat="44.07257" lon="6.46292">
        <ele>1318</ele>
        <time>1990-12-07T09:33:31Z</time>
      </trkpt>
      <trkpt lat="44.07303" lon="6.46238">
        <ele>1317</ele>
        <time>1990-12-07T09:33:04Z</time>
      </trkpt>
      <trkpt lat="44.07352" lon="6.46193">
        <ele>1310</ele>
        <time>1990-12-07T09:32:40Z</time>
      </trkpt>
      <trkpt lat="44.07417" lon="6.46183">
        <ele>1306</ele>
        <time>1990-12-07T09:32:19Z</time>
      </trkpt>
      <trkpt lat="44.07457" lon="6.46107">
        <ele>1304</ele>
        <time>1990-12-07T09:31:57Z</time>
      </trkpt>
      <trkpt lat="44.07502" lon="6.46013">
        <ele>1302</ele>
        <time>1990-12-07T09:31:33Z</time>
      </trkpt>
      <trkpt lat="44.07557" lon="6.45923">
        <ele>1298</ele>
        <time>1990-12-07T09:31:06Z</time>
      </trkpt>
      <trkpt lat="44.0756" lon="6.45817">
        <ele>1295</ele>
        <time>1990-12-07T09:30:40Z</time>
      </trkpt>
      <trkpt lat="44.0758" lon="6.45735">
        <ele>1294</ele>
        <time>1990-12-07T09:30:20Z</time>
      </trkpt>
      <trkpt lat="44.07615" lon="6.4574">
        <ele>1295</ele>
        <time>1990-12-07T09:30:11Z</time>
      </trkpt>
      <trkpt lat="44.07677" lon="6.45712">
        <ele>1294</ele>
        <time>1990-12-07T09:29:50Z</time>
      </trkpt>
      <trkpt lat="44.07753" lon="6.4565">
        <ele>1292</ele>
        <time>1990-12-07T09:29:23Z</time>
      </trkpt>
      <trkpt lat="44.0782" lon="6.45562">
        <ele>1292</ele>
        <time>1990-12-07T09:28:57Z</time>
      </trkpt>
      <trkpt lat="44.07862" lon="6.45483">
        <ele>1291</ele>
        <time>1990-12-07T09:28:42Z</time>
      </trkpt>
      <trkpt lat="44.07872" lon="6.45462">
        <ele>1293</ele>
        <time>1990-12-07T09:28:38Z</time>
      </trkpt>
      <trkpt lat="44.07903" lon="6.45343">
        <ele>1294</ele>
        <time>1990-12-07T09:28:12Z</time>
      </trkpt>
      <trkpt lat="44.0793" lon="6.45233">
        <ele>1292</ele>
        <time>1990-12-07T09:27:48Z</time>
      </trkpt>
      <trkpt lat="44.07947" lon="6.45113">
        <ele>1291</ele>
        <time>1990-12-07T09:27:21Z</time>
      </trkpt>
      <trkpt lat="44.07973" lon="6.44997">
        <ele>1290</ele>
        <time>1990-12-07T09:26:54Z</time>
      </trkpt>
      <trkpt lat="44.07993" lon="6.44942">
        <ele>1289</ele>
        <time>1990-12-07T09:26:38Z</time>
      </trkpt>
      <trkpt lat="44.08013" lon="6.44867">
        <ele>1285</ele>
        <time>1990-12-07T09:26:12Z</time>
      </trkpt>
      <trkpt lat="44.08027" lon="6.44842">
        <ele>1283</ele>
        <time>1990-12-07T09:25:43Z</time>
      </trkpt>
      <trkpt lat="44.08017" lon="6.44835">
        <ele>1284</ele>
        <time>1990-12-07T09:25:27Z</time>
      </trkpt>
      <trkpt lat="44.08005" lon="6.44805">
        <ele>1289</ele>
        <time>1990-12-07T09:25:20Z</time>
      </trkpt>
      <trkpt lat="44.07997" lon="6.44777">
        <ele>1294</ele>
        <time>1990-12-07T09:25:12Z</time>
      </trkpt>
      <trkpt lat="44.07993" lon="6.4474">
        <ele>1299</ele>
        <time>1990-12-07T09:25:04Z</time>
      </trkpt>
      <trkpt lat="44.07982" lon="6.44687">
        <ele>1306</ele>
        <time>1990-12-07T09:24:55Z</time>
      </trkpt>
      <trkpt lat="44.07973" lon="6.44652">
        <ele>1310</ele>
        <time>1990-12-07T09:24:46Z</time>
      </trkpt>
      <trkpt lat="44.07965" lon="6.4462">
        <ele>1317</ele>
        <time>1990-12-07T09:24:35Z</time>
      </trkpt>
      <trkpt lat="44.07947" lon="6.44612">
        <ele>1321</ele>
        <time>1990-12-07T09:24:29Z</time>
      </trkpt>
      <trkpt lat="44.07928" lon="6.44617">
        <ele>1328</ele>
        <time>1990-12-07T09:24:20Z</time>
      </trkpt>
      <trkpt lat="44.07912" lon="6.44598">
        <ele>1333</ele>
        <time>1990-12-07T09:24:12Z</time>
      </trkpt>
      <trkpt lat="44.07898" lon="6.44575">
        <ele>1339</ele>
        <time>1990-12-07T09:24:05Z</time>
      </trkpt>
      <trkpt lat="44.07892" lon="6.44572">
        <ele>1341</ele>
        <time>1990-12-07T09:24:02Z</time>
      </trkpt>
      <trkpt lat="44.0787" lon="6.44548">
        <ele>1347</ele>
        <time>1990-12-07T09:23:54Z</time>
      </trkpt>
      <trkpt lat="44.07867" lon="6.445">
        <ele>1354</ele>
        <time>1990-12-07T09:23:46Z</time>
      </trkpt>
      <trkpt lat="44.07865" lon="6.44467">
        <ele>1360</ele>
        <time>1990-12-07T09:23:38Z</time>
      </trkpt>
      <trkpt lat="44.0785" lon="6.44438">
        <ele>1365</ele>
        <time>1990-12-07T09:23:31Z</time>
      </trkpt>
      <trkpt lat="44.0783" lon="6.44418">
        <ele>1372</ele>
        <time>1990-12-07T09:23:18Z</time>
      </trkpt>
      <trkpt lat="44.07813" lon="6.44405">
        <ele>1379</ele>
        <time>1990-12-07T09:23:07Z</time>
      </trkpt>
      <trkpt lat="44.07807" lon="6.44395">
        <ele>1382</ele>
        <time>1990-12-07T09:22:40Z</time>
      </trkpt>
      <trkpt lat="44.07803" lon="6.44382">
        <ele>1384</ele>
        <time>1990-12-07T09:22:33Z</time>
      </trkpt>
      <trkpt lat="44.07802" lon="6.4437">
        <ele>1387</ele>
        <time>1990-12-07T09:20:46Z</time>
      </trkpt>
      <trkpt lat="44.078" lon="6.4437">
        <ele>1384</ele>
        <time>1990-12-07T09:10:06Z</time>
      </trkpt>
      <trkpt lat="44.07798" lon="6.44345">
        <ele>1384</ele>
        <time>1990-12-07T09:09:46Z</time>
      </trkpt>
      <trkpt lat="44.07793" lon="6.44325">
        <ele>1381</ele>
        <time>1990-12-07T09:09:34Z</time>
      </trkpt>
      <trkpt lat="44.0779" lon="6.44288">
        <ele>1375</ele>
        <time>1990-12-07T09:09:14Z</time>
      </trkpt>
      <trkpt lat="44.07792" lon="6.44242">
        <ele>1370</ele>
        <time>1990-12-07T09:08:46Z</time>
      </trkpt>
      <trkpt lat="44.07792" lon="6.44228">
        <ele>1369</ele>
        <time>1990-12-07T09:08:39Z</time>
      </trkpt>
      <trkpt lat="44.07797" lon="6.44188">
        <ele>1364</ele>
        <time>1990-12-07T09:08:07Z</time>
      </trkpt>
      <trkpt lat="44.07803" lon="6.44155">
        <ele>1359</ele>
        <time>1990-12-07T09:07:36Z</time>
      </trkpt>
      <trkpt lat="44.07808" lon="6.44133">
        <ele>1355</ele>
        <time>1990-12-07T09:07:01Z</time>
      </trkpt>
      <trkpt lat="44.07788" lon="6.44132">
        <ele>1348</ele>
        <time>1990-12-07T09:06:26Z</time>
      </trkpt>
      <trkpt lat="44.0778" lon="6.4413">
        <ele>1346</ele>
        <time>1990-12-07T09:06:06Z</time>
      </trkpt>
      <trkpt lat="44.07757" lon="6.44122">
        <ele>1341</ele>
        <time>1990-12-07T09:05:45Z</time>
      </trkpt>
      <trkpt lat="44.07743" lon="6.44108">
        <ele>1337</ele>
        <time>1990-12-07T09:05:33Z</time>
      </trkpt>
      <trkpt lat="44.07738" lon="6.44097">
        <ele>1334</ele>
        <time>1990-12-07T09:05:24Z</time>
      </trkpt>
      <trkpt lat="44.07725" lon="6.44077">
        <ele>1330</ele>
        <time>1990-12-07T09:05:07Z</time>
      </trkpt>
      <trkpt lat="44.07713" lon="6.4406">
        <ele>1325</ele>
        <time>1990-12-07T09:04:51Z</time>
      </trkpt>
      <trkpt lat="44.07695" lon="6.44045">
        <ele>1320</ele>
        <time>1990-12-07T09:04:31Z</time>
      </trkpt>
      <trkpt lat="44.07668" lon="6.44032">
        <ele>1313</ele>
        <time>1990-12-07T09:04:08Z</time>
      </trkpt>
      <trkpt lat="44.07647" lon="6.44013">
        <ele>1309</ele>
        <time>1990-12-07T09:03:48Z</time>
      </trkpt>
      <trkpt lat="44.07625" lon="6.43997">
        <ele>1304</ele>
        <time>1990-12-07T09:03:29Z</time>
      </trkpt>
      <trkpt lat="44.076" lon="6.43977">
        <ele>1299</ele>
        <time>1990-12-07T09:03:07Z</time>
      </trkpt>
      <trkpt lat="44.07578" lon="6.43952">
        <ele>1295</ele>
        <time>1990-12-07T09:02:49Z</time>
      </trkpt>
      <trkpt lat="44.07557" lon="6.43923">
        <ele>1292</ele>
        <time>1990-12-07T09:02:27Z</time>
      </trkpt>
      <trkpt lat="44.07543" lon="6.43913">
        <ele>1290</ele>
        <time>1990-12-07T09:02:04Z</time>
      </trkpt>
      <trkpt lat="44.07532" lon="6.43898">
        <ele>1285</ele>
        <time>1990-12-07T09:01:43Z</time>
      </trkpt>
      <trkpt lat="44.07513" lon="6.43878">
        <ele>1281</ele>
        <time>1990-12-07T09:01:12Z</time>
      </trkpt>
      <trkpt lat="44.07495" lon="6.43852">
        <ele>1275</ele>
        <time>1990-12-07T09:00:41Z</time>
      </trkpt>
      <trkpt lat="44.07487" lon="6.43835">
        <ele>1271</ele>
        <time>1990-12-07T09:00:23Z</time>
      </trkpt>
      <trkpt lat="44.0747" lon="6.43825">
        <ele>1265</ele>
        <time>1990-12-07T08:59:46Z</time>
      </trkpt>
      <trkpt lat="44.0746" lon="6.4382">
        <ele>1261</ele>
        <time>1990-12-07T08:59:37Z</time>
      </trkpt>
      <trkpt lat="44.07433" lon="6.43818">
        <ele>1256</ele>
        <time>1990-12-07T08:59:19Z</time>
      </trkpt>
      <trkpt lat="44.07398" lon="6.43792">
        <ele>1250</ele>
        <time>1990-12-07T08:58:53Z</time>
      </trkpt>
      <trkpt lat="44.07358" lon="6.43792">
        <ele>1244</ele>
        <time>1990-12-07T08:58:28Z</time>
      </trkpt>
      <trkpt lat="44.07327" lon="6.43777">
        <ele>1237</ele>
        <time>1990-12-07T08:58:06Z</time>
      </trkpt>
      <trkpt lat="44.07288" lon="6.4377">
        <ele>1231</ele>
        <time>1990-12-07T08:57:43Z</time>
      </trkpt>
      <trkpt lat="44.07243" lon="6.43745">
        <ele>1225</ele>
        <time>1990-12-07T08:57:15Z</time>
      </trkpt>
      <trkpt lat="44.07198" lon="6.4372">
        <ele>1219</ele>
        <time>1990-12-07T08:56:48Z</time>
      </trkpt>
      <trkpt lat="44.07205" lon="6.43703">
        <ele>1220</ele>
        <time>1990-12-07T08:56:40Z</time>
      </trkpt>
      <trkpt lat="44.07252" lon="6.43672">
        <ele>1223</ele>
        <time>1990-12-07T08:56:32Z</time>
      </trkpt>
      <trkpt lat="44.07262" lon="6.4363">
        <ele>1226</ele>
        <time>1990-12-07T08:56:27Z</time>
      </trkpt>
      <trkpt lat="44.07272" lon="6.43542">
        <ele>1232</ele>
        <time>1990-12-07T08:56:18Z</time>
      </trkpt>
      <trkpt lat="44.07312" lon="6.43493">
        <ele>1241</ele>
        <time>1990-12-07T08:56:09Z</time>
      </trkpt>
      <trkpt lat="44.07328" lon="6.43457">
        <ele>1245</ele>
        <time>1990-12-07T08:56:04Z</time>
      </trkpt>
      <trkpt lat="44.07342" lon="6.43432">
        <ele>1247</ele>
        <time>1990-12-07T08:56:00Z</time>
      </trkpt>
      <trkpt lat="44.07358" lon="6.434">
        <ele>1251</ele>
        <time>1990-12-07T08:55:55Z</time>
      </trkpt>
      <trkpt lat="44.07378" lon="6.43333">
        <ele>1259</ele>
        <time>1990-12-07T08:55:44Z</time>
      </trkpt>
      <trkpt lat="44.07405" lon="6.43273">
        <ele>1263</ele>
        <time>1990-12-07T08:55:29Z</time>
      </trkpt>
      <trkpt lat="44.07397" lon="6.43278">
        <ele>1263</ele>
        <time>1990-12-07T08:54:46Z</time>
      </trkpt>
      <trkpt lat="44.07403" lon="6.43252">
        <ele>1262</ele>
        <time>1990-12-07T08:54:30Z</time>
      </trkpt>
      <trkpt lat="44.07415" lon="6.43202">
        <ele>1262</ele>
        <time>1990-12-07T08:54:22Z</time>
      </trkpt>
      <trkpt lat="44.07367" lon="6.43217">
        <ele>1264</ele>
        <time>1990-12-07T08:54:04Z</time>
      </trkpt>
      <trkpt lat="44.07323" lon="6.43258">
        <ele>1264</ele>
        <time>1990-12-07T08:53:48Z</time>
      </trkpt>
      <trkpt lat="44.07292" lon="6.4327">
        <ele>1266</ele>
        <time>1990-12-07T08:53:36Z</time>
      </trkpt>
      <trkpt lat="44.07257" lon="6.43278">
        <ele>1271</ele>
        <time>1990-12-07T08:53:22Z</time>
      </trkpt>
      <trkpt lat="44.07238" lon="6.43275">
        <ele>1275</ele>
        <time>1990-12-07T08:52:54Z</time>
      </trkpt>
      <trkpt lat="44.07227" lon="6.43268">
        <ele>1278</ele>
        <time>1990-12-07T08:52:47Z</time>
      </trkpt>
      <trkpt lat="44.07207" lon="6.43248">
        <ele>1282</ele>
        <time>1990-12-07T08:52:39Z</time>
      </trkpt>
      <trkpt lat="44.07183" lon="6.4323">
        <ele>1287</ele>
        <time>1990-12-07T08:52:22Z</time>
      </trkpt>
      <trkpt lat="44.07162" lon="6.43223">
        <ele>1295</ele>
        <time>1990-12-07T08:52:11Z</time>
      </trkpt>
      <trkpt lat="44.07123" lon="6.43207">
        <ele>1302</ele>
        <time>1990-12-07T08:51:57Z</time>
      </trkpt>
      <trkpt lat="44.07105" lon="6.4321">
        <ele>1305</ele>
        <time>1990-12-07T08:51:49Z</time>
      </trkpt>
      <trkpt lat="44.07073" lon="6.43212">
        <ele>1309</ele>
        <time>1990-12-07T08:51:36Z</time>
      </trkpt>
      <trkpt lat="44.07052" lon="6.43212">
        <ele>1314</ele>
        <time>1990-12-07T08:51:25Z</time>
      </trkpt>
      <trkpt lat="44.07035" lon="6.4321">
        <ele>1318</ele>
        <time>1990-12-07T08:51:18Z</time>
      </trkpt>
      <trkpt lat="44.07023" lon="6.43222">
        <ele>1321</ele>
        <time>1990-12-07T08:51:12Z</time>
      </trkpt>
      <trkpt lat="44.07015" lon="6.43223">
        <ele>1323</ele>
        <time>1990-12-07T08:51:08Z</time>
      </trkpt>
      <trkpt lat="44.06985" lon="6.43215">
        <ele>1329</ele>
        <time>1990-12-07T08:50:59Z</time>
      </trkpt>
      <trkpt lat="44.06953" lon="6.43238">
        <ele>1333</ele>
        <time>1990-12-07T08:50:48Z</time>
      </trkpt>
      <trkpt lat="44.06908" lon="6.4323">
        <ele>1336</ele>
        <time>1990-12-07T08:50:33Z</time>
      </trkpt>
      <trkpt lat="44.0688" lon="6.43187">
        <ele>1339</ele>
        <time>1990-12-07T08:50:13Z</time>
      </trkpt>
      <trkpt lat="44.06853" lon="6.43153">
        <ele>1342</ele>
        <time>1990-12-07T08:49:50Z</time>
      </trkpt>
      <trkpt lat="44.06823" lon="6.43142">
        <ele>1345</ele>
        <time>1990-12-07T08:49:20Z</time>
      </trkpt>
      <trkpt lat="44.068" lon="6.43145">
        <ele>1349</ele>
        <time>1990-12-07T08:49:10Z</time>
      </trkpt>
      <trkpt lat="44.06752" lon="6.43142">
        <ele>1353</ele>
        <time>1990-12-07T08:48:50Z</time>
      </trkpt>
      <trkpt lat="44.06738" lon="6.43115">
        <ele>1349</ele>
        <time>1990-12-07T08:48:32Z</time>
      </trkpt>
      <trkpt lat="44.06737" lon="6.43055">
        <ele>1345</ele>
        <time>1990-12-07T08:48:04Z</time>
      </trkpt>
      <trkpt lat="44.06735" lon="6.43035">
        <ele>1343</ele>
        <time>1990-12-07T08:47:47Z</time>
      </trkpt>
      <trkpt lat="44.06723" lon="6.43032">
        <ele>1343</ele>
        <time>1990-12-07T08:47:34Z</time>
      </trkpt>
      <trkpt lat="44.067" lon="6.43035">
        <ele>1343</ele>
        <time>1990-12-07T08:47:21Z</time>
      </trkpt>
      <trkpt lat="44.06667" lon="6.43025">
        <ele>1343</ele>
        <time>1990-12-07T08:46:58Z</time>
      </trkpt>
      <trkpt lat="44.06582" lon="6.4298">
        <ele>1345</ele>
        <time>1990-12-07T08:46:36Z</time>
      </trkpt>
      <trkpt lat="44.06535" lon="6.42978">
        <ele>1352</ele>
        <time>1990-12-07T08:46:21Z</time>
      </trkpt>
    </trkseg>
  </trk>
</gpx>